sensor_id;sensor_type;location;lat;lon;timestamp;P1;durP1;ratioP1;P2;durP2;ratioP2
77026;SDS011;65956;52.986;17.490;2023-02-03T00:02:09;9.10;;;3.70;;
77026;SDS011;65956;52.986;17.490;2023-02-03T00:04:36;10.00;;;3.70;;
77026;SDS011;65956;52.986;17.490;2023-02-03T00:07:03;12.80;;;4.50;;
77026;SDS011;65956;52.986;17.490;2023-02-03T00:09:31;8.90;;;3.60;;
77026;SDS011;65956;52.986;17.490;2023-02-03T00:11:58;11.90;;;4.70;;
77026;SDS011;65956;52.986;17.490;2023-02-03T00:14:25;15.10;;;5.40;;
77026;SDS011;65956;52.986;17.490;2023-02-03T00:16:53;13.90;;;5.70;;
77026;SDS011;65956;52.986;17.490;2023-02-03T00:19:20;13.70;;;5.10;;
77026;SDS011;65956;52.986;17.490;2023-02-03T00:21:47;14.10;;;4.90;;
77026;SDS011;65956;52.986;17.490;2023-02-03T00:24:14;11.50;;;4.80;;
77026;SDS011;65956;52.986;17.490;2023-02-03T00:26:42;10.00;;;4.20;;
77026;SDS011;65956;52.986;17.490;2023-02-03T00:29:09;10.10;;;3.40;;
77026;SDS011;65956;52.986;17.490;2023-02-03T00:31:37;8.00;;;3.70;;
77026;SDS011;65956;52.986;17.490;2023-02-03T00:34:05;9.30;;;3.80;;
77026;SDS011;65956;52.986;17.490;2023-02-03T00:36:32;8.20;;;3.40;;
77026;SDS011;65956;52.986;17.490;2023-02-03T00:39:00;7.90;;;2.90;;
77026;SDS011;65956;52.986;17.490;2023-02-03T00:41:28;9.90;;;3.80;;
77026;SDS011;65956;52.986;17.490;2023-02-03T00:43:57;10.40;;;3.00;;
77026;SDS011;65956;52.986;17.490;2023-02-03T00:46:24;9.30;;;3.30;;
77026;SDS011;65956;52.986;17.490;2023-02-03T00:48:51;7.80;;;3.20;;
77026;SDS011;65956;52.986;17.490;2023-02-03T00:51:19;8.90;;;3.30;;
77026;SDS011;65956;52.986;17.490;2023-02-03T00:53:47;8.00;;;3.50;;
77026;SDS011;65956;52.986;17.490;2023-02-03T00:56:14;6.20;;;2.30;;
77026;SDS011;65956;52.986;17.490;2023-02-03T00:58:42;10.90;;;3.60;;
77026;SDS011;65956;52.986;17.490;2023-02-03T01:01:09;8.80;;;3.20;;
77026;SDS011;65956;52.986;17.490;2023-02-03T01:03:36;7.20;;;3.10;;
77026;SDS011;65956;52.986;17.490;2023-02-03T01:06:11;6.40;;;2.80;;
77026;SDS011;65956;52.986;17.490;2023-02-03T01:08:44;10.60;;;3.20;;
77026;SDS011;65956;52.986;17.490;2023-02-03T01:11:13;8.50;;;2.80;;
77026;SDS011;65956;52.986;17.490;2023-02-03T01:13:45;6.60;;;2.90;;
77026;SDS011;65956;52.986;17.490;2023-02-03T01:16:14;9.10;;;3.10;;
77026;SDS011;65956;52.986;17.490;2023-02-03T01:18:44;7.40;;;3.40;;
77026;SDS011;65956;52.986;17.490;2023-02-03T01:21:16;9.90;;;3.50;;
77026;SDS011;65956;52.986;17.490;2023-02-03T01:23:50;8.10;;;2.80;;
77026;SDS011;65956;52.986;17.490;2023-02-03T01:26:19;6.00;;;3.10;;
77026;SDS011;65956;52.986;17.490;2023-02-03T01:28:51;10.50;;;4.10;;
77026;SDS011;65956;52.986;17.490;2023-02-03T01:31:24;11.00;;;4.00;;
77026;SDS011;65956;52.986;17.490;2023-02-03T01:33:53;14.00;;;5.50;;
77026;SDS011;65956;52.986;17.490;2023-02-03T01:36:22;12.10;;;4.80;;
77026;SDS011;65956;52.986;17.490;2023-02-03T01:38:50;13.70;;;5.00;;
77026;SDS011;65956;52.986;17.490;2023-02-03T01:41:23;10.60;;;4.90;;
77026;SDS011;65956;52.986;17.490;2023-02-03T01:43:54;13.80;;;5.00;;
77026;SDS011;65956;52.986;17.490;2023-02-03T01:49:04;11.70;;;4.90;;
77026;SDS011;65956;52.986;17.490;2023-02-03T01:51:39;11.40;;;5.10;;
77026;SDS011;65956;52.986;17.490;2023-02-03T01:54:08;11.70;;;5.00;;
77026;SDS011;65956;52.986;17.490;2023-02-03T01:56:41;11.60;;;5.00;;
77026;SDS011;65956;52.986;17.490;2023-02-03T01:59:11;10.70;;;5.10;;
77026;SDS011;65956;52.986;17.490;2023-02-03T02:04:11;10.40;;;4.70;;
77026;SDS011;65956;52.986;17.490;2023-02-03T02:06:39;10.30;;;4.00;;
77026;SDS011;65956;52.986;17.490;2023-02-03T02:09:09;12.30;;;4.80;;
77026;SDS011;65956;52.986;17.490;2023-02-03T02:14:24;9.60;;;4.40;;
77026;SDS011;65956;52.986;17.490;2023-02-03T02:17:00;9.60;;;4.20;;
77026;SDS011;65956;52.986;17.490;2023-02-03T02:34:34;7.80;;;3.70;;
77026;SDS011;65956;52.986;17.490;2023-02-03T02:40:07;9.40;;;3.50;;
77026;SDS011;65956;52.986;17.490;2023-02-03T02:45:35;8.20;;;3.50;;
77026;SDS011;65956;52.986;17.490;2023-02-03T02:48:10;8.40;;;3.80;;
77026;SDS011;65956;52.986;17.490;2023-02-03T02:50:49;8.20;;;3.20;;
77026;SDS011;65956;52.986;17.490;2023-02-03T02:53:20;7.40;;;3.50;;
77026;SDS011;65956;52.986;17.490;2023-02-03T02:55:51;9.00;;;3.50;;
77026;SDS011;65956;52.986;17.490;2023-02-03T02:58:22;11.10;;;3.70;;
77026;SDS011;65956;52.986;17.490;2023-02-03T03:00:52;8.50;;;4.10;;
77026;SDS011;65956;52.986;17.490;2023-02-03T03:03:21;11.00;;;3.80;;
77026;SDS011;65956;52.986;17.490;2023-02-03T03:05:57;8.60;;;4.10;;
77026;SDS011;65956;52.986;17.490;2023-02-03T03:08:34;9.80;;;3.40;;
77026;SDS011;65956;52.986;17.490;2023-02-03T03:11:14;10.10;;;4.20;;
77026;SDS011;65956;52.986;17.490;2023-02-03T03:14:01;11.90;;;4.80;;
77026;SDS011;65956;52.986;17.490;2023-02-03T03:16:35;9.80;;;4.40;;
77026;SDS011;65956;52.986;17.490;2023-02-03T03:19:18;8.30;;;3.80;;
77026;SDS011;65956;52.986;17.490;2023-02-03T03:21:51;10.00;;;4.70;;
77026;SDS011;65956;52.986;17.490;2023-02-03T03:24:25;11.40;;;4.50;;
77026;SDS011;65956;52.986;17.490;2023-02-03T03:27:03;8.80;;;4.20;;
77026;SDS011;65956;52.986;17.490;2023-02-03T03:29:38;12.00;;;4.80;;
77026;SDS011;65956;52.986;17.490;2023-02-03T03:32:13;9.80;;;4.50;;
77026;SDS011;65956;52.986;17.490;2023-02-03T03:34:41;9.50;;;4.80;;
77026;SDS011;65956;52.986;17.490;2023-02-03T03:37:19;10.90;;;4.70;;
77026;SDS011;65956;52.986;17.490;2023-02-03T03:39:55;8.20;;;4.40;;
77026;SDS011;65956;52.986;17.490;2023-02-03T03:45:23;10.80;;;3.90;;
77026;SDS011;65956;52.986;17.490;2023-02-03T03:50:27;8.40;;;4.00;;
77026;SDS011;65956;52.986;17.490;2023-02-03T03:52:58;8.90;;;4.70;;
77026;SDS011;65956;52.986;17.490;2023-02-03T03:55:29;11.20;;;4.10;;
77026;SDS011;65956;52.986;17.490;2023-02-03T03:58:00;8.60;;;4.10;;
77026;SDS011;65956;52.986;17.490;2023-02-03T04:00:33;9.50;;;4.20;;
77026;SDS011;65956;52.986;17.490;2023-02-03T04:03:10;9.50;;;4.10;;
77026;SDS011;65956;52.986;17.490;2023-02-03T04:05:43;7.50;;;3.80;;
77026;SDS011;65956;52.986;17.490;2023-02-03T04:08:10;9.10;;;4.00;;
77026;SDS011;65956;52.986;17.490;2023-02-03T04:10:39;8.60;;;3.60;;
77026;SDS011;65956;52.986;17.490;2023-02-03T04:13:08;9.50;;;4.60;;
77026;SDS011;65956;52.986;17.490;2023-02-03T04:15:37;8.10;;;3.90;;
77026;SDS011;65956;52.986;17.490;2023-02-03T04:18:04;8.60;;;3.80;;
77026;SDS011;65956;52.986;17.490;2023-02-03T04:20:32;8.10;;;3.20;;
77026;SDS011;65956;52.986;17.490;2023-02-03T04:22:59;9.10;;;3.50;;
77026;SDS011;65956;52.986;17.490;2023-02-03T04:25:27;7.50;;;3.60;;
77026;SDS011;65956;52.986;17.490;2023-02-03T04:27:54;10.00;;;3.50;;
77026;SDS011;65956;52.986;17.490;2023-02-03T04:30:22;8.40;;;3.70;;
77026;SDS011;65956;52.986;17.490;2023-02-03T04:32:49;9.90;;;3.60;;
77026;SDS011;65956;52.986;17.490;2023-02-03T04:35:16;7.70;;;3.60;;
77026;SDS011;65956;52.986;17.490;2023-02-03T04:37:45;7.40;;;3.40;;
77026;SDS011;65956;52.986;17.490;2023-02-03T04:40:12;9.10;;;2.90;;
77026;SDS011;65956;52.986;17.490;2023-02-03T04:42:39;7.50;;;3.40;;
77026;SDS011;65956;52.986;17.490;2023-02-03T04:45:08;7.50;;;3.40;;
77026;SDS011;65956;52.986;17.490;2023-02-03T04:47:36;7.50;;;3.10;;
77026;SDS011;65956;52.986;17.490;2023-02-03T04:50:05;8.70;;;4.00;;
77026;SDS011;65956;52.986;17.490;2023-02-03T04:52:33;6.80;;;2.50;;
77026;SDS011;65956;52.986;17.490;2023-02-03T04:55:00;8.60;;;3.70;;
77026;SDS011;65956;52.986;17.490;2023-02-03T04:57:27;7.30;;;3.50;;
77026;SDS011;65956;52.986;17.490;2023-02-03T04:59:54;9.30;;;4.40;;
77026;SDS011;65956;52.986;17.490;2023-02-03T05:02:21;7.80;;;4.10;;
77026;SDS011;65956;52.986;17.490;2023-02-03T05:04:49;7.20;;;3.30;;
77026;SDS011;65956;52.986;17.490;2023-02-03T05:07:16;8.60;;;3.40;;
77026;SDS011;65956;52.986;17.490;2023-02-03T05:09:43;11.40;;;4.80;;
77026;SDS011;65956;52.986;17.490;2023-02-03T05:12:10;10.00;;;4.40;;
77026;SDS011;65956;52.986;17.490;2023-02-03T05:14:37;10.10;;;4.50;;
77026;SDS011;65956;52.986;17.490;2023-02-03T05:17:04;8.60;;;3.60;;
77026;SDS011;65956;52.986;17.490;2023-02-03T05:19:31;7.20;;;3.30;;
77026;SDS011;65956;52.986;17.490;2023-02-03T05:21:59;7.30;;;3.30;;
77026;SDS011;65956;52.986;17.490;2023-02-03T05:24:26;8.80;;;3.00;;
77026;SDS011;65956;52.986;17.490;2023-02-03T05:26:53;10.70;;;4.10;;
77026;SDS011;65956;52.986;17.490;2023-02-03T05:29:20;6.60;;;2.80;;
77026;SDS011;65956;52.986;17.490;2023-02-03T05:31:47;8.60;;;4.80;;
77026;SDS011;65956;52.986;17.490;2023-02-03T05:34:14;10.80;;;4.10;;
77026;SDS011;65956;52.986;17.490;2023-02-03T05:36:42;9.40;;;3.90;;
77026;SDS011;65956;52.986;17.490;2023-02-03T05:39:09;14.10;;;5.40;;
77026;SDS011;65956;52.986;17.490;2023-02-03T05:41:36;16.60;;;5.80;;
77026;SDS011;65956;52.986;17.490;2023-02-03T05:44:19;9.50;;;4.80;;
77026;SDS011;65956;52.986;17.490;2023-02-03T05:46:54;13.90;;;5.80;;
77026;SDS011;65956;52.986;17.490;2023-02-03T05:49:23;16.60;;;7.60;;
77026;SDS011;65956;52.986;17.490;2023-02-03T05:51:51;10.60;;;4.90;;
77026;SDS011;65956;52.986;17.490;2023-02-03T05:54:20;9.50;;;4.80;;
77026;SDS011;65956;52.986;17.490;2023-02-03T05:56:47;10.00;;;4.20;;
77026;SDS011;65956;52.986;17.490;2023-02-03T05:59:15;14.60;;;6.00;;
77026;SDS011;65956;52.986;17.490;2023-02-03T06:01:42;18.60;;;7.00;;
77026;SDS011;65956;52.986;17.490;2023-02-03T06:04:09;12.30;;;3.80;;
77026;SDS011;65956;52.986;17.490;2023-02-03T06:06:36;22.50;;;7.90;;
77026;SDS011;65956;52.986;17.490;2023-02-03T06:09:05;18.90;;;5.30;;
77026;SDS011;65956;52.986;17.490;2023-02-03T06:11:34;13.00;;;5.20;;
77026;SDS011;65956;52.986;17.490;2023-02-03T06:14:03;14.50;;;6.20;;
77026;SDS011;65956;52.986;17.490;2023-02-03T06:16:30;12.60;;;4.40;;
77026;SDS011;65956;52.986;17.490;2023-02-03T06:18:57;10.80;;;5.10;;
77026;SDS011;65956;52.986;17.490;2023-02-03T06:21:26;11.10;;;5.40;;
77026;SDS011;65956;52.986;17.490;2023-02-03T06:23:54;10.80;;;5.10;;
77026;SDS011;65956;52.986;17.490;2023-02-03T06:26:22;12.00;;;5.50;;
77026;SDS011;65956;52.986;17.490;2023-02-03T06:28:50;11.80;;;5.50;;
77026;SDS011;65956;52.986;17.490;2023-02-03T06:31:18;12.00;;;5.90;;
77026;SDS011;65956;52.986;17.490;2023-02-03T06:33:45;14.90;;;6.00;;
77026;SDS011;65956;52.986;17.490;2023-02-03T06:36:12;12.90;;;5.30;;
77026;SDS011;65956;52.986;17.490;2023-02-03T06:38:39;11.60;;;5.90;;
77026;SDS011;65956;52.986;17.490;2023-02-03T06:41:06;9.70;;;4.20;;
77026;SDS011;65956;52.986;17.490;2023-02-03T06:43:33;11.50;;;5.10;;
77026;SDS011;65956;52.986;17.490;2023-02-03T06:46:01;10.90;;;5.00;;
77026;SDS011;65956;52.986;17.490;2023-02-03T06:48:28;13.90;;;5.50;;
77026;SDS011;65956;52.986;17.490;2023-02-03T06:50:55;26.70;;;9.60;;
77026;SDS011;65956;52.986;17.490;2023-02-03T06:53:23;15.40;;;7.20;;
77026;SDS011;65956;52.986;17.490;2023-02-03T06:55:50;11.60;;;6.30;;
77026;SDS011;65956;52.986;17.490;2023-02-03T06:58:18;13.40;;;6.40;;
77026;SDS011;65956;52.986;17.490;2023-02-03T07:00:45;14.30;;;6.60;;
77026;SDS011;65956;52.986;17.490;2023-02-03T07:03:12;13.10;;;6.20;;
77026;SDS011;65956;52.986;17.490;2023-02-03T07:05:39;16.20;;;7.80;;
77026;SDS011;65956;52.986;17.490;2023-02-03T07:08:06;16.00;;;7.90;;
77026;SDS011;65956;52.986;17.490;2023-02-03T07:10:33;10.10;;;5.90;;
77026;SDS011;65956;52.986;17.490;2023-02-03T07:13:01;16.60;;;6.70;;
77026;SDS011;65956;52.986;17.490;2023-02-03T07:15:30;13.60;;;5.50;;
77026;SDS011;65956;52.986;17.490;2023-02-03T07:17:57;9.80;;;4.70;;
77026;SDS011;65956;52.986;17.490;2023-02-03T07:20:24;9.40;;;4.60;;
77026;SDS011;65956;52.986;17.490;2023-02-03T07:22:55;11.90;;;5.90;;
77026;SDS011;65956;52.986;17.490;2023-02-03T07:25:24;12.20;;;6.70;;
77026;SDS011;65956;52.986;17.490;2023-02-03T07:27:51;9.10;;;4.90;;
77026;SDS011;65956;52.986;17.490;2023-02-03T07:30:19;12.70;;;6.40;;
77026;SDS011;65956;52.986;17.490;2023-02-03T07:32:47;10.60;;;4.30;;
77026;SDS011;65956;52.986;17.490;2023-02-03T07:35:15;13.90;;;6.90;;
77026;SDS011;65956;52.986;17.490;2023-02-03T07:37:43;13.90;;;7.40;;
77026;SDS011;65956;52.986;17.490;2023-02-03T07:40:12;20.30;;;8.70;;
77026;SDS011;65956;52.986;17.490;2023-02-03T07:42:43;29.20;;;9.40;;
77026;SDS011;65956;52.986;17.490;2023-02-03T07:45:12;34.00;;;12.90;;
77026;SDS011;65956;52.986;17.490;2023-02-03T07:47:41;33.20;;;12.40;;
77026;SDS011;65956;52.986;17.490;2023-02-03T07:50:10;43.10;;;15.30;;
77026;SDS011;65956;52.986;17.490;2023-02-03T07:52:37;35.00;;;11.70;;
77026;SDS011;65956;52.986;17.490;2023-02-03T07:55:05;27.20;;;9.00;;
77026;SDS011;65956;52.986;17.490;2023-02-03T07:57:33;34.00;;;12.70;;
77026;SDS011;65956;52.986;17.490;2023-02-03T08:00:00;37.20;;;13.20;;
77026;SDS011;65956;52.986;17.490;2023-02-03T08:02:39;42.70;;;15.90;;
77026;SDS011;65956;52.986;17.490;2023-02-03T08:05:07;36.60;;;13.40;;
77026;SDS011;65956;52.986;17.490;2023-02-03T08:07:36;29.80;;;11.60;;
77026;SDS011;65956;52.986;17.490;2023-02-03T08:10:03;24.20;;;9.80;;
77026;SDS011;65956;52.986;17.490;2023-02-03T08:12:32;31.00;;;11.00;;
77026;SDS011;65956;52.986;17.490;2023-02-03T08:14:59;26.30;;;10.50;;
77026;SDS011;65956;52.986;17.490;2023-02-03T08:17:27;27.20;;;10.10;;
77026;SDS011;65956;52.986;17.490;2023-02-03T08:19:54;30.50;;;10.90;;
77026;SDS011;65956;52.986;17.490;2023-02-03T08:22:21;29.80;;;9.60;;
77026;SDS011;65956;52.986;17.490;2023-02-03T08:24:49;25.30;;;10.40;;
77026;SDS011;65956;52.986;17.490;2023-02-03T08:27:18;22.20;;;9.20;;
77026;SDS011;65956;52.986;17.490;2023-02-03T08:29:47;17.80;;;7.90;;
77026;SDS011;65956;52.986;17.490;2023-02-03T08:32:16;19.10;;;8.40;;
77026;SDS011;65956;52.986;17.490;2023-02-03T08:34:45;12.20;;;5.90;;
77026;SDS011;65956;52.986;17.490;2023-02-03T08:37:14;17.20;;;7.70;;
77026;SDS011;65956;52.986;17.490;2023-02-03T08:39:43;16.90;;;7.90;;
77026;SDS011;65956;52.986;17.490;2023-02-03T08:42:10;15.70;;;7.10;;
77026;SDS011;65956;52.986;17.490;2023-02-03T08:44:38;13.70;;;7.10;;
77026;SDS011;65956;52.986;17.490;2023-02-03T08:47:06;12.00;;;6.10;;
77026;SDS011;65956;52.986;17.490;2023-02-03T08:49:33;23.70;;;8.50;;
77026;SDS011;65956;52.986;17.490;2023-02-03T08:52:01;18.40;;;8.10;;
77026;SDS011;65956;52.986;17.490;2023-02-03T08:54:28;17.10;;;8.30;;
77026;SDS011;65956;52.986;17.490;2023-02-03T08:56:55;16.80;;;8.60;;
77026;SDS011;65956;52.986;17.490;2023-02-03T08:59:23;16.70;;;7.70;;
77026;SDS011;65956;52.986;17.490;2023-02-03T09:01:51;13.40;;;7.30;;
77026;SDS011;65956;52.986;17.490;2023-02-03T09:04:18;12.20;;;7.00;;
77026;SDS011;65956;52.986;17.490;2023-02-03T09:09:17;13.20;;;6.30;;
77026;SDS011;65956;52.986;17.490;2023-02-03T09:11:44;14.00;;;7.90;;
77026;SDS011;65956;52.986;17.490;2023-02-03T09:14:11;15.10;;;8.40;;
77026;SDS011;65956;52.986;17.490;2023-02-03T09:16:39;14.30;;;7.40;;
77026;SDS011;65956;52.986;17.490;2023-02-03T09:19:06;15.20;;;7.70;;
77026;SDS011;65956;52.986;17.490;2023-02-03T09:21:33;17.00;;;9.10;;
77026;SDS011;65956;52.986;17.490;2023-02-03T09:24:01;20.30;;;9.70;;
77026;SDS011;65956;52.986;17.490;2023-02-03T09:26:29;18.70;;;9.30;;
77026;SDS011;65956;52.986;17.490;2023-02-03T09:28:56;19.70;;;9.60;;
77026;SDS011;65956;52.986;17.490;2023-02-03T09:31:24;16.60;;;9.40;;
77026;SDS011;65956;52.986;17.490;2023-02-03T09:33:51;21.50;;;10.90;;
77026;SDS011;65956;52.986;17.490;2023-02-03T09:36:18;25.60;;;13.10;;
77026;SDS011;65956;52.986;17.490;2023-02-03T09:38:46;23.00;;;9.90;;
77026;SDS011;65956;52.986;17.490;2023-02-03T09:46:46;17.80;;;7.20;;
77026;SDS011;65956;52.986;17.490;2023-02-03T09:49:26;18.00;;;7.60;;
77026;SDS011;65956;52.986;17.490;2023-02-03T09:54:46;26.10;;;9.90;;
77026;SDS011;65956;52.986;17.490;2023-02-03T09:57:22;21.10;;;9.00;;
77026;SDS011;65956;52.986;17.490;2023-02-03T09:59:55;25.90;;;10.70;;
77026;SDS011;65956;52.986;17.490;2023-02-03T10:11:12;24.50;;;8.60;;
77026;SDS011;65956;52.986;17.490;2023-02-03T10:16:59;43.30;;;17.00;;
77026;SDS011;65956;52.986;17.490;2023-02-03T10:19:35;18.40;;;7.60;;
77026;SDS011;65956;52.986;17.490;2023-02-03T10:22:17;15.20;;;6.50;;
77026;SDS011;65956;52.986;17.490;2023-02-03T10:24:53;28.50;;;11.50;;
77026;SDS011;65956;52.986;17.490;2023-02-03T10:27:37;14.50;;;6.70;;
77026;SDS011;65956;52.986;17.490;2023-02-03T10:33:19;14.20;;;7.70;;
77026;SDS011;65956;52.986;17.490;2023-02-03T10:35:49;15.50;;;8.70;;
77026;SDS011;65956;52.986;17.490;2023-02-03T10:39:01;12.00;;;6.20;;
77026;SDS011;65956;52.986;17.490;2023-02-03T10:41:20;13.60;;;6.60;;
77026;SDS011;65956;52.986;17.490;2023-02-03T10:43:49;17.10;;;9.40;;
77026;SDS011;65956;52.986;17.490;2023-02-03T10:46:20;14.20;;;7.90;;
77026;SDS011;65956;52.986;17.490;2023-02-03T10:48:58;11.50;;;6.10;;
77026;SDS011;65956;52.986;17.490;2023-02-03T10:51:27;16.10;;;8.20;;
77026;SDS011;65956;52.986;17.490;2023-02-03T10:53:57;11.80;;;5.10;;
77026;SDS011;65956;52.986;17.490;2023-02-03T10:56:34;9.80;;;5.80;;
77026;SDS011;65956;52.986;17.490;2023-02-03T10:59:04;16.00;;;7.60;;
77026;SDS011;65956;52.986;17.490;2023-02-03T11:01:40;13.00;;;6.40;;
77026;SDS011;65956;52.986;17.490;2023-02-03T11:04:30;23.90;;;11.00;;
77026;SDS011;65956;52.986;17.490;2023-02-03T11:07:00;13.10;;;6.50;;
77026;SDS011;65956;52.986;17.490;2023-02-03T11:09:39;9.80;;;4.90;;
77026;SDS011;65956;52.986;17.490;2023-02-03T11:12:12;13.60;;;5.90;;
77026;SDS011;65956;52.986;17.490;2023-02-03T11:14:48;18.60;;;7.80;;
77026;SDS011;65956;52.986;17.490;2023-02-03T11:17:18;17.40;;;8.10;;
77026;SDS011;65956;52.986;17.490;2023-02-03T11:19:46;20.60;;;9.10;;
77026;SDS011;65956;52.986;17.490;2023-02-03T11:22:30;17.90;;;7.60;;
77026;SDS011;65956;52.986;17.490;2023-02-03T11:25:03;24.10;;;8.70;;
77026;SDS011;65956;52.986;17.490;2023-02-03T11:27:42;25.60;;;9.60;;
77026;SDS011;65956;52.986;17.490;2023-02-03T11:30:23;26.50;;;14.90;;
77026;SDS011;65956;52.986;17.490;2023-02-03T11:33:00;31.50;;;22.10;;
77026;SDS011;65956;52.986;17.490;2023-02-03T11:35:29;14.70;;;7.30;;
77026;SDS011;65956;52.986;17.490;2023-02-03T11:38:00;12.70;;;6.70;;
77026;SDS011;65956;52.986;17.490;2023-02-03T11:40:31;11.60;;;4.70;;
77026;SDS011;65956;52.986;17.490;2023-02-03T11:43:01;14.80;;;7.20;;
77026;SDS011;65956;52.986;17.490;2023-02-03T12:23:54;18.40;;;9.20;;
77026;SDS011;65956;52.986;17.490;2023-02-03T12:26:28;9.90;;;6.30;;
77026;SDS011;65956;52.986;17.490;2023-02-03T12:34:54;10.40;;;5.00;;
77026;SDS011;65956;52.986;17.490;2023-02-03T12:37:41;10.10;;;5.20;;
77026;SDS011;65956;52.986;17.490;2023-02-03T12:40:27;13.40;;;8.90;;
77026;SDS011;65956;52.986;17.490;2023-02-03T12:42:59;11.10;;;6.10;;
77026;SDS011;65956;52.986;17.490;2023-02-03T12:45:44;13.10;;;6.90;;
77026;SDS011;65956;52.986;17.490;2023-02-03T12:48:49;13.50;;;7.00;;
77026;SDS011;65956;52.986;17.490;2023-02-03T12:56:57;34.80;;;19.30;;
77026;SDS011;65956;52.986;17.490;2023-02-03T12:59:36;18.70;;;10.70;;
77026;SDS011;65956;52.986;17.490;2023-02-03T13:02:17;15.30;;;8.70;;
77026;SDS011;65956;52.986;17.490;2023-02-03T13:04:53;23.80;;;14.30;;
77026;SDS011;65956;52.986;17.490;2023-02-03T13:07:48;17.60;;;10.70;;
77026;SDS011;65956;52.986;17.490;2023-02-03T13:10:41;47.50;;;17.80;;
77026;SDS011;65956;52.986;17.490;2023-02-03T13:13:15;89.60;;;32.00;;
77026;SDS011;65956;52.986;17.490;2023-02-03T13:15:49;204.30;;;67.90;;
77026;SDS011;65956;52.986;17.490;2023-02-03T13:18:22;80.10;;;28.20;;
77026;SDS011;65956;52.986;17.490;2023-02-03T13:21:03;82.80;;;36.60;;
77026;SDS011;65956;52.986;17.490;2023-02-03T13:23:31;56.70;;;28.20;;
77026;SDS011;65956;52.986;17.490;2023-02-03T13:37:07;10.90;;;5.90;;
77026;SDS011;65956;52.986;17.490;2023-02-03T13:43:17;13.10;;;6.70;;
77026;SDS011;65956;52.986;17.490;2023-02-03T13:45:49;16.30;;;8.30;;
77026;SDS011;65956;52.986;17.490;2023-02-03T13:48:19;15.80;;;7.00;;
77026;SDS011;65956;52.986;17.490;2023-02-03T13:51:29;21.10;;;8.10;;
77026;SDS011;65956;52.986;17.490;2023-02-03T13:53:51;24.80;;;11.30;;
77026;SDS011;65956;52.986;17.490;2023-02-03T13:56:25;28.20;;;12.30;;
77026;SDS011;65956;52.986;17.490;2023-02-03T13:58:58;32.40;;;12.20;;
77026;SDS011;65956;52.986;17.490;2023-02-03T14:01:37;21.20;;;8.80;;
77026;SDS011;65956;52.986;17.490;2023-02-03T14:04:50;18.20;;;7.40;;
77026;SDS011;65956;52.986;17.490;2023-02-03T14:06:58;30.80;;;10.40;;
77026;SDS011;65956;52.986;17.490;2023-02-03T14:14:43;24.70;;;10.00;;
77026;SDS011;65956;52.986;17.490;2023-02-03T14:20:10;41.10;;;15.90;;
77026;SDS011;65956;52.986;17.490;2023-02-03T14:23:13;48.60;;;17.10;;
77026;SDS011;65956;52.986;17.490;2023-02-03T14:25:46;56.10;;;17.10;;
77026;SDS011;65956;52.986;17.490;2023-02-03T14:28:18;58.70;;;19.00;;
77026;SDS011;65956;52.986;17.490;2023-02-03T14:47:26;55.10;;;18.20;;
77026;SDS011;65956;52.986;17.490;2023-02-03T14:53:06;23.20;;;7.70;;
77026;SDS011;65956;52.986;17.490;2023-02-03T14:58:35;44.90;;;20.10;;
77026;SDS011;65956;52.986;17.490;2023-02-03T15:06:43;52.00;;;18.50;;
77026;SDS011;65956;52.986;17.490;2023-02-03T15:12:16;29.50;;;11.30;;
77026;SDS011;65956;52.986;17.490;2023-02-03T15:14:43;29.20;;;9.20;;
77026;SDS011;65956;52.986;17.490;2023-02-03T15:17:12;28.80;;;11.00;;
77026;SDS011;65956;52.986;17.490;2023-02-03T15:19:53;27.90;;;10.10;;
77026;SDS011;65956;52.986;17.490;2023-02-03T15:22:25;25.30;;;7.20;;
77026;SDS011;65956;52.986;17.490;2023-02-03T15:25:00;26.80;;;10.60;;
77026;SDS011;65956;52.986;17.490;2023-02-03T15:27:33;26.40;;;7.90;;
77026;SDS011;65956;52.986;17.490;2023-02-03T15:30:23;33.30;;;10.80;;
77026;SDS011;65956;52.986;17.490;2023-02-03T15:33:04;52.80;;;15.80;;
77026;SDS011;65956;52.986;17.490;2023-02-03T15:35:34;37.40;;;10.60;;
77026;SDS011;65956;52.986;17.490;2023-02-03T15:38:05;26.30;;;7.20;;
77026;SDS011;65956;52.986;17.490;2023-02-03T15:40:57;31.90;;;10.80;;
77026;SDS011;65956;52.986;17.490;2023-02-03T15:43:30;24.80;;;7.20;;
77026;SDS011;65956;52.986;17.490;2023-02-03T15:46:09;14.80;;;4.60;;
77026;SDS011;65956;52.986;17.490;2023-02-03T15:48:49;35.90;;;11.60;;
77026;SDS011;65956;52.986;17.490;2023-02-03T15:51:38;30.20;;;10.70;;
77026;SDS011;65956;52.986;17.490;2023-02-03T15:54:15;109.30;;;35.80;;
77026;SDS011;65956;52.986;17.490;2023-02-03T15:56:50;135.90;;;36.90;;
77026;SDS011;65956;52.986;17.490;2023-02-03T15:59:37;57.10;;;16.60;;
77026;SDS011;65956;52.986;17.490;2023-02-03T16:02:15;67.80;;;20.50;;
77026;SDS011;65956;52.986;17.490;2023-02-03T16:04:48;120.80;;;32.60;;
77026;SDS011;65956;52.986;17.490;2023-02-03T16:07:20;67.30;;;21.40;;
77026;SDS011;65956;52.986;17.490;2023-02-03T16:09:55;104.70;;;31.30;;
77026;SDS011;65956;52.986;17.490;2023-02-03T16:12:30;123.60;;;36.30;;
77026;SDS011;65956;52.986;17.490;2023-02-03T16:15:00;82.60;;;25.20;;
77026;SDS011;65956;52.986;17.490;2023-02-03T16:17:34;90.40;;;26.90;;
77026;SDS011;65956;52.986;17.490;2023-02-03T16:22:39;51.20;;;16.50;;
77026;SDS011;65956;52.986;17.490;2023-02-03T16:25:16;56.90;;;18.30;;
77026;SDS011;65956;52.986;17.490;2023-02-03T16:27:57;58.70;;;24.00;;
77026;SDS011;65956;52.986;17.490;2023-02-03T16:30:52;84.40;;;26.70;;
77026;SDS011;65956;52.986;17.490;2023-02-03T16:33:47;52.10;;;15.60;;
77026;SDS011;65956;52.986;17.490;2023-02-03T16:36:38;55.00;;;21.60;;
77026;SDS011;65956;52.986;17.490;2023-02-03T16:39:26;64.10;;;19.90;;
77026;SDS011;65956;52.986;17.490;2023-02-03T16:42:14;28.20;;;8.60;;
77026;SDS011;65956;52.986;17.490;2023-02-03T16:45:14;61.70;;;20.20;;
77026;SDS011;65956;52.986;17.490;2023-02-03T16:48:01;52.80;;;14.80;;
77026;SDS011;65956;52.986;17.490;2023-02-03T16:50:48;70.20;;;26.00;;
77026;SDS011;65956;52.986;17.490;2023-02-03T16:53:27;62.90;;;20.40;;
77026;SDS011;65956;52.986;17.490;2023-02-03T16:55:57;80.10;;;29.10;;
77026;SDS011;65956;52.986;17.490;2023-02-03T16:58:26;50.10;;;19.30;;
77026;SDS011;65956;52.986;17.490;2023-02-03T17:00:53;50.10;;;17.70;;
77026;SDS011;65956;52.986;17.490;2023-02-03T17:03:24;45.50;;;14.80;;
77026;SDS011;65956;52.986;17.490;2023-02-03T17:05:55;32.20;;;9.50;;
77026;SDS011;65956;52.986;17.490;2023-02-03T17:08:23;36.70;;;15.10;;
77026;SDS011;65956;52.986;17.490;2023-02-03T17:10:51;31.30;;;13.40;;
77026;SDS011;65956;52.986;17.490;2023-02-03T17:13:19;36.60;;;13.10;;
77026;SDS011;65956;52.986;17.490;2023-02-03T17:15:49;30.90;;;13.00;;
77026;SDS011;65956;52.986;17.490;2023-02-03T17:18:20;31.20;;;10.10;;
77026;SDS011;65956;52.986;17.490;2023-02-03T17:20:48;41.80;;;15.10;;
77026;SDS011;65956;52.986;17.490;2023-02-03T17:23:16;25.40;;;8.30;;
77026;SDS011;65956;52.986;17.490;2023-02-03T17:25:44;29.90;;;11.50;;
77026;SDS011;65956;52.986;17.490;2023-02-03T17:28:14;24.60;;;8.50;;
77026;SDS011;65956;52.986;17.490;2023-02-03T17:30:43;27.10;;;10.40;;
77026;SDS011;65956;52.986;17.490;2023-02-03T17:33:10;22.10;;;8.00;;
77026;SDS011;65956;52.986;17.490;2023-02-03T17:35:41;25.20;;;9.90;;